createdAt,value
2018-03-21T00:00:04.526Z,99592.85
2018-03-21T00:02:35.271Z,99590.02
2018-03-21T00:05:06.295Z,99596.06
2018-03-21T00:07:37.106Z,99597.02
2018-03-21T00:10:09.567Z,99591.91
2018-03-21T00:12:40.230Z,99600.25
2018-03-21T00:15:11.026Z,99599.03
2018-03-21T00:17:42.090Z,99603.29
2018-03-21T00:20:12.821Z,99609.48
2018-03-21T00:22:45.713Z,99605.57
2018-03-21T00:25:16.467Z,99608.22
2018-03-21T00:27:47.097Z,99613.30
2018-03-21T00:30:17.774Z,99611.81
2018-03-21T00:32:49.116Z,99616.61
2018-03-21T00:35:19.755Z,99611.14
2018-03-21T00:37:51.294Z,99614.91
2018-03-21T00:40:21.934Z,99621.28
2018-03-21T00:42:52.606Z,99620.50
2018-03-21T00:45:24.257Z,99626.49
2018-03-21T00:47:56.159Z,99623.54
2018-03-21T00:50:27.818Z,99633.80
2018-03-21T00:52:59.242Z,99635.14
2018-03-21T00:55:30.362Z,99642.87
2018-03-21T00:58:01.548Z,99645.48
2018-03-21T01:00:32.942Z,99646.89
2018-03-21T01:03:04.259Z,99647.30
2018-03-21T01:05:34.942Z,99648.68
2018-03-21T01:08:05.790Z,99649.55
2018-03-21T01:10:36.477Z,99641.81
2018-03-21T01:13:07.834Z,99646.89
2018-03-21T01:15:39.062Z,99644.04
2018-03-21T01:18:09.677Z,99647.31
2018-03-21T01:20:40.642Z,99648.83
2018-03-21T01:23:11.914Z,99639.55
2018-03-21T01:25:42.550Z,99649.30
2018-03-21T01:28:13.735Z,99651.86
2018-03-21T01:30:44.694Z,99655.16
2018-03-21T01:33:16.683Z,99651.22
2018-03-21T01:35:47.973Z,99649.94
2018-03-21T01:38:19.599Z,99647.55
2018-03-21T01:40:51.438Z,99649.27
2018-03-21T01:43:23.078Z,99649.47
2018-03-21T01:45:54.933Z,99648.74
2018-03-21T01:48:26.718Z,99650.25
2018-03-21T01:50:57.781Z,99649.17
2018-03-21T01:53:30.136Z,99652.88
2018-03-21T01:56:01.498Z,99661.43
2018-03-21T01:58:33.233Z,99659.20
2018-03-21T02:01:05.417Z,99657.91
2018-03-21T02:03:37.004Z,99654.33
2018-03-21T02:06:09.104Z,99655.17
2018-03-21T02:08:40.772Z,99660.58
2018-03-21T02:11:12.438Z,99654.48
2018-03-21T02:13:44.246Z,99650.44
2018-03-21T02:16:16.568Z,99653.36
2018-03-21T02:18:48.409Z,99658.67
2018-03-21T02:21:20.297Z,99662.77
2018-03-21T02:23:52.438Z,99657.27
2018-03-21T02:26:24.293Z,99659.92
2018-03-21T02:28:56.261Z,99663.66
2018-03-21T02:31:31.462Z,99668.02
2018-03-21T02:34:03.958Z,99673.61
2018-03-21T02:36:35.540Z,99671.42
2018-03-21T02:39:07.438Z,99667.97
2018-03-21T02:41:39.092Z,99669.30
2018-03-21T02:44:10.674Z,99674.48
2018-03-21T02:46:41.909Z,99671.08
2018-03-21T02:49:13.338Z,99664.89
2018-03-21T02:51:44.756Z,99670.86
2018-03-21T02:54:16.371Z,99671.55
2018-03-21T02:56:48.349Z,99673.09
2018-03-21T02:59:20.514Z,99673.86
2018-03-21T03:01:51.949Z,99668.66
2018-03-21T03:04:23.474Z,99665.87
2018-03-21T03:06:55.116Z,99664.88
2018-03-21T03:09:27.003Z,99668.44
2018-03-21T03:11:58.861Z,99666.53
2018-03-21T03:14:30.913Z,99670.55
2018-03-21T03:17:02.665Z,99674.09
2018-03-21T03:19:34.617Z,99677.11
2018-03-21T03:22:05.825Z,99670.16
2018-03-21T03:24:37.554Z,99667.41
2018-03-21T03:27:09.630Z,99675.08
2018-03-21T03:29:41.194Z,99680.54
2018-03-21T03:32:12.918Z,99679.97
2018-03-21T03:34:45.045Z,99674.63
2018-03-21T03:37:17.165Z,99676.02
2018-03-21T03:39:48.992Z,99681.49
2018-03-21T03:42:20.089Z,99677.72
2018-03-21T03:44:51.497Z,99680.68
2018-03-21T03:47:23.281Z,99680.98
2018-03-21T03:49:56.629Z,99684.59
2018-03-21T03:52:28.290Z,99688.74
2018-03-21T03:55:00.284Z,99686.48
2018-03-21T03:57:31.858Z,99690.05
2018-03-21T04:00:02.996Z,99685.64
2018-03-21T04:02:35.050Z,99687.73
2018-03-21T04:05:06.713Z,99685.82
2018-03-21T04:07:37.863Z,99687.33
2018-03-21T04:10:09.534Z,99686.92
2018-03-21T04:12:41.632Z,99683.95
2018-03-21T04:15:13.883Z,99679.11
2018-03-21T04:17:45.677Z,99676.36
2018-03-21T04:20:17.298Z,99679.53
2018-03-21T04:22:49.622Z,99675.69
2018-03-21T04:25:21.282Z,99688.72
2018-03-21T04:27:53.139Z,99682.09
2018-03-21T04:30:24.647Z,99683.58
2018-03-21T04:32:55.799Z,99682.94
2018-03-21T04:35:27.690Z,99680.97
2018-03-21T04:38:01.490Z,99686.28
2018-03-21T04:40:33.618Z,99692.77
2018-03-21T04:43:05.222Z,99693.66
2018-03-21T04:45:37.656Z,99696.67
2018-03-21T04:48:09.533Z,99691.23
2018-03-21T04:50:41.810Z,99692.17
2018-03-21T04:53:13.940Z,99690.00
2018-03-21T04:55:45.691Z,99694.84
2018-03-21T04:58:17.146Z,99694.86
2018-03-21T05:00:49.293Z,99694.98
2018-03-21T05:03:20.879Z,99695.36
2018-03-21T05:05:52.701Z,99693.77
2018-03-21T05:08:24.710Z,99696.31
2018-03-21T05:10:55.793Z,99698.77
2018-03-21T05:13:27.544Z,99696.38
2018-03-21T05:15:59.188Z,99704.89
2018-03-21T05:18:31.118Z,99711.50
2018-03-21T05:21:02.258Z,99705.47
2018-03-21T05:23:34.601Z,99708.69
2018-03-21T05:26:07.826Z,99700.65
2018-03-21T05:28:39.318Z,99703.23
2018-03-21T05:31:11.129Z,99701.98
2018-03-21T05:33:42.921Z,99708.12
2018-03-21T05:36:15.089Z,99716.27
2018-03-21T05:38:47.129Z,99718.86
2018-03-21T05:41:25.180Z,99724.48
2018-03-21T05:43:57.137Z,99721.81
2018-03-21T05:46:28.963Z,99732.44
2018-03-21T05:49:00.080Z,99735.92
2018-03-21T05:51:31.583Z,99735.70
2018-03-21T05:54:03.182Z,99739.12
2018-03-21T05:56:35.586Z,99729.91
2018-03-21T05:59:07.234Z,99730.75
2018-03-21T06:01:39.469Z,99734.21
2018-03-21T06:04:11.809Z,99739.38
2018-03-21T06:06:43.205Z,99738.09
2018-03-21T06:09:15.454Z,99747.90
2018-03-21T06:11:46.575Z,99743.99
2018-03-21T06:14:22.069Z,99748.92
2018-03-21T06:16:53.149Z,99747.91
2018-03-21T06:19:24.468Z,99756.08
2018-03-21T06:21:55.932Z,99762.94
2018-03-21T06:24:27.931Z,99764.69
2018-03-21T06:27:00.616Z,99767.70
2018-03-21T06:29:32.960Z,99768.57
2018-03-21T06:32:04.449Z,99770.63
2018-03-21T06:34:35.738Z,99778.26
2018-03-21T06:37:08.562Z,99769.36
2018-03-21T06:39:40.747Z,99777.06
2018-03-21T06:42:13.310Z,99778.61
2018-03-21T06:44:46.936Z,99782.06
2018-03-21T06:47:18.502Z,99779.14
2018-03-21T06:49:49.598Z,99782.19
2018-03-21T06:52:20.754Z,99790.64
2018-03-21T06:54:52.109Z,99790.50
2018-03-21T06:57:23.242Z,99796.66
2018-03-21T06:59:54.349Z,99792.50
2018-03-21T07:02:25.699Z,99793.53
2018-03-21T07:04:56.817Z,99795.94
2018-03-21T07:07:27.942Z,99797.77
2018-03-21T07:09:59.741Z,99801.22
2018-03-21T07:12:31.144Z,99800.67
2018-03-21T07:17:18.685Z,99800.20
2018-03-21T07:19:50.588Z,99812.38
2018-03-21T07:22:21.714Z,99814.89
2018-03-21T07:24:53.133Z,99818.93
2018-03-21T07:27:24.277Z,99817.92
2018-03-21T07:29:55.938Z,99818.50
2018-03-21T07:32:27.705Z,99824.50
2018-03-21T07:34:58.839Z,99823.62
2018-03-21T07:37:30.610Z,99819.92
2018-03-21T07:40:02.018Z,99822.06
2018-03-21T07:42:33.391Z,99821.95
2018-03-21T07:45:04.772Z,99825.13
2018-03-21T07:47:36.145Z,99834.61
2018-03-21T07:50:07.101Z,99827.92
2018-03-21T07:52:38.353Z,99830.59
2018-03-21T07:55:09.595Z,99831.59
2018-03-21T07:57:40.732Z,99835.02
2018-03-21T08:00:11.665Z,99835.63
2018-03-21T08:02:43.061Z,99832.98
2018-03-21T08:05:13.926Z,99839.43
2018-03-21T08:07:44.813Z,99840.75
2018-03-21T08:10:16.082Z,99839.02
2018-03-21T08:12:47.437Z,99844.97
2018-03-21T08:15:19.021Z,99856.98
2018-03-21T08:17:49.838Z,99856.47
2018-03-21T08:20:21.238Z,99869.95
2018-03-21T08:22:52.830Z,99862.63
2018-03-21T08:25:30.290Z,99864.84
2018-03-21T08:28:01.477Z,99858.97
2018-03-21T08:30:32.270Z,99863.91
2018-03-21T08:33:03.719Z,99867.76
2018-03-21T08:35:35.703Z,99861.38
2018-03-21T08:38:06.915Z,99865.49
2018-03-21T08:40:38.105Z,99866.33
2018-03-21T08:43:09.598Z,99870.66
2018-03-21T08:45:40.694Z,99872.72
2018-03-21T08:48:11.818Z,99875.45
2018-03-21T08:50:42.617Z,99871.32
2018-03-21T08:53:14.029Z,99880.86
2018-03-21T08:55:45.472Z,99884.67
2018-03-21T08:58:16.369Z,99879.84
2018-03-21T09:00:47.219Z,99885.22
2018-03-21T09:03:19.278Z,99881.11
2018-03-21T09:05:50.191Z,99888.64
2018-03-21T09:08:36.310Z,99883.80
2018-03-21T09:11:07.176Z,99878.10
2018-03-21T09:13:37.964Z,99883.36
2018-03-21T09:16:09.113Z,99879.36
2018-03-21T09:18:39.886Z,99874.73
2018-03-21T09:21:10.766Z,99877.35
2018-03-21T09:23:41.968Z,99881.05
2018-03-21T09:26:13.057Z,99876.39
2018-03-21T09:28:44.421Z,99878.42
2018-03-21T09:31:15.302Z,99873.80
2018-03-21T09:33:46.510Z,99882.92
2018-03-21T09:36:18.082Z,99876.55
2018-03-21T09:38:48.934Z,99870.33
2018-03-21T09:41:20.001Z,99878.14
2018-03-21T09:43:51.602Z,99884.56
2018-03-21T09:46:22.403Z,99884.23
2018-03-21T09:48:53.265Z,99887.30
2018-03-21T09:51:24.422Z,99887.39
2018-03-21T09:53:55.410Z,99883.30
2018-03-21T09:56:26.633Z,99879.16
2018-03-21T09:58:57.542Z,99879.32
2018-03-21T10:01:28.530Z,99871.40
2018-03-21T10:03:59.340Z,99866.03
2018-03-21T10:06:30.317Z,99869.39
2018-03-21T10:09:02.520Z,99873.16
2018-03-21T10:11:33.614Z,99869.66
2018-03-21T10:14:04.977Z,99870.73
2018-03-21T10:16:35.885Z,99872.34
2018-03-21T10:19:07.010Z,99869.08
2018-03-21T10:21:37.813Z,99877.81
2018-03-21T10:24:08.355Z,99876.17
2018-03-21T10:26:39.299Z,99875.95
2018-03-21T10:29:10.121Z,99872.80
2018-03-21T10:31:41.325Z,99872.70
2018-03-21T10:34:13.039Z,99869.28
2018-03-21T10:36:43.826Z,99866.61
2018-03-21T10:39:15.794Z,99872.13
2018-03-21T10:41:46.623Z,99868.66
2018-03-21T10:44:17.673Z,99875.33
2018-03-21T10:46:48.589Z,99871.88
2018-03-21T10:49:19.416Z,99869.34
2018-03-21T10:51:50.332Z,99864.80
2018-03-21T10:54:21.657Z,99863.38
2018-03-21T10:56:55.499Z,99864.54
2018-03-21T10:59:26.264Z,99863.44
2018-03-21T11:02:00.966Z,99859.23
2018-03-21T11:04:31.862Z,99860.38
2018-03-21T11:07:03.533Z,99857.88
2018-03-21T11:09:34.892Z,99855.30
2018-03-21T11:12:05.961Z,99853.39
2018-03-21T11:14:37.232Z,99858.05
2018-03-21T11:17:08.466Z,99847.50
2018-03-21T11:19:39.618Z,99849.27
2018-03-21T11:22:11.116Z,99852.62
2018-03-21T11:24:41.961Z,99855.27
2018-03-21T11:27:13.013Z,99850.55
2018-03-21T11:29:43.917Z,99848.98
2018-03-21T11:32:15.055Z,99854.63
2018-03-21T11:34:46.125Z,99853.88
2018-03-21T11:37:16.985Z,99839.41
2018-03-21T11:39:48.097Z,99841.49
2018-03-21T11:42:18.941Z,99841.03
2018-03-21T11:44:50.421Z,99841.70
2018-03-21T11:47:25.251Z,99838.11
2018-03-21T11:49:56.030Z,99835.78
2018-03-21T11:52:27.573Z,99836.89
2018-03-21T11:54:58.390Z,99836.28
2018-03-21T11:57:29.517Z,99840.02
2018-03-21T12:00:00.655Z,99837.31
2018-03-21T12:02:31.553Z,99841.30
2018-03-21T12:05:02.387Z,99831.54
2018-03-21T12:07:34.541Z,99828.19
2018-03-21T12:10:05.422Z,99819.21
2018-03-21T12:12:36.257Z,99818.37
2018-03-21T12:15:07.413Z,99819.66
2018-03-21T12:17:44.050Z,99815.53
2018-03-21T12:20:15.554Z,99817.48
2018-03-21T12:22:46.421Z,99806.43
2018-03-21T12:25:18.063Z,99800.98
2018-03-21T12:27:49.225Z,99804.48
2018-03-21T12:30:20.073Z,99801.14
2018-03-21T12:32:51.325Z,99799.14
2018-03-21T12:35:22.197Z,99798.73
2018-03-21T12:37:53.165Z,99797.42
2018-03-21T12:40:25.554Z,99797.80
2018-03-21T12:42:56.414Z,99797.99
2018-03-21T12:45:27.277Z,99793.41
2018-03-21T12:47:58.350Z,99789.40
2018-03-21T12:50:29.239Z,99793.62
2018-03-21T12:53:00.086Z,99794.27
2018-03-21T12:55:31.753Z,99786.69
2018-03-21T12:58:02.571Z,99788.55
2018-03-21T13:00:33.754Z,99785.02
2018-03-21T13:03:04.542Z,99782.27
2018-03-21T13:05:35.379Z,99786.24
2018-03-21T13:08:07.517Z,99766.80
2018-03-21T13:10:38.337Z,99765.52
2018-03-21T13:13:09.199Z,99760.66
2018-03-21T13:15:40.098Z,99763.78
2018-03-21T13:18:11.825Z,99767.75
2018-03-21T13:20:42.932Z,99761.70
2018-03-21T13:23:14.333Z,99759.19
2018-03-21T13:25:46.091Z,99749.31
2018-03-21T13:28:17.166Z,99754.22
2018-03-21T13:30:48.365Z,99745.47
2018-03-21T13:33:19.232Z,99738.59
2018-03-21T13:35:50.337Z,99736.83
2018-03-21T13:38:22.134Z,99738.97
2018-03-21T13:40:52.959Z,99727.81
2018-03-21T13:43:23.804Z,99728.67
2018-03-21T13:45:54.557Z,99727.25
2018-03-21T13:48:25.640Z,99726.36
2018-03-21T13:50:57.349Z,99724.66
2018-03-21T13:53:28.205Z,99721.80
2018-03-21T13:55:59.338Z,99722.80
2018-03-21T13:58:30.158Z,99724.73
2018-03-21T14:01:01.033Z,99721.67
2018-03-21T14:03:32.134Z,99725.63
2018-03-21T14:06:02.914Z,99727.09
2018-03-21T14:08:33.879Z,99725.38
2018-03-21T14:11:05.046Z,99721.56
2018-03-21T14:13:35.953Z,99721.71
2018-03-21T14:16:06.886Z,99722.55
2018-03-21T14:18:38.126Z,99721.59
2018-03-21T14:21:10.056Z,99724.27
2018-03-21T14:23:41.430Z,99716.75
2018-03-21T14:26:12.214Z,99711.22
2018-03-21T14:28:43.121Z,99705.52
2018-03-21T14:31:14.293Z,99717.67
2018-03-21T14:33:47.101Z,99708.36
2018-03-21T14:36:17.932Z,99711.22
2018-03-21T14:38:48.806Z,99714.57
2018-03-21T14:41:19.670Z,99706.92
2018-03-21T14:43:50.470Z,99707.56
2018-03-21T14:46:22.082Z,99712.13
2018-03-21T14:48:53.602Z,99707.47
2018-03-21T14:51:24.841Z,99701.14
2018-03-21T14:54:01.679Z,99699.84
2018-03-21T14:56:32.489Z,99694.53
2018-03-21T14:59:03.343Z,99694.52
2018-03-21T15:01:34.225Z,99692.51
2018-03-21T15:04:05.380Z,99692.33
2018-03-21T15:06:36.336Z,99692.94
2018-03-21T15:09:07.349Z,99689.69
2018-03-21T15:11:38.334Z,99687.71
2018-03-21T15:14:09.161Z,99690.59
2018-03-21T15:16:40.050Z,99685.42
2018-03-21T15:19:11.211Z,99675.38
2018-03-21T15:21:42.241Z,99672.52
2018-03-21T15:24:13.302Z,99671.48
2018-03-21T15:26:44.206Z,99667.31
2018-03-21T15:29:15.024Z,99671.80
2018-03-21T15:31:45.874Z,99665.75
2018-03-21T15:34:17.108Z,99665.19
2018-03-21T15:36:49.982Z,99665.75
2018-03-21T15:39:23.345Z,99662.52
2018-03-21T15:41:54.206Z,99657.45
2018-03-21T15:44:25.328Z,99654.91
2018-03-21T15:46:56.598Z,99661.65
2018-03-21T15:49:27.637Z,99653.50
2018-03-21T15:51:58.683Z,99655.94
2018-03-21T15:54:29.875Z,99652.61
2018-03-21T15:57:00.814Z,99653.66
2018-03-21T15:59:31.612Z,99651.19
2018-03-21T16:02:03.044Z,99653.08
2018-03-21T16:04:33.930Z,99647.62
2018-03-21T16:07:05.398Z,99646.15
2018-03-21T16:09:37.797Z,99643.33
2018-03-21T16:12:08.721Z,99645.58
2018-03-21T16:14:39.573Z,99641.59
2018-03-21T16:17:10.890Z,99638.38
2018-03-21T16:19:42.149Z,99636.48
2018-03-21T16:22:13.406Z,99633.22
2018-03-21T16:24:44.562Z,99631.65
2018-03-21T16:27:15.466Z,99638.19
2018-03-21T16:29:46.642Z,99630.69
2018-03-21T16:32:18.690Z,99629.79
2018-03-21T16:34:49.502Z,99638.98
2018-03-21T16:37:20.849Z,99634.28
2018-03-21T16:39:51.848Z,99630.89
2018-03-21T16:42:22.668Z,99628.19
2018-03-21T16:44:54.748Z,99628.81
2018-03-21T16:47:25.704Z,99626.05
2018-03-21T16:49:56.824Z,99627.69
2018-03-21T16:52:27.814Z,99628.02
2018-03-21T16:54:58.622Z,99626.06
2018-03-21T16:57:29.842Z,99623.89
2018-03-21T17:00:00.802Z,99626.64
2018-03-21T17:02:31.679Z,99620.92
2018-03-21T17:05:03.338Z,99622.59
2018-03-21T17:07:34.201Z,99619.77
2018-03-21T17:10:05.259Z,99618.09
2018-03-21T17:12:36.575Z,99615.02
2018-03-21T17:15:07.503Z,99618.08
2018-03-21T17:17:39.048Z,99618.25
2018-03-21T17:20:10.084Z,99619.68
2018-03-21T17:22:40.937Z,99617.80
2018-03-21T17:25:12.514Z,99619.52
2018-03-21T17:27:43.678Z,99614.48
2018-03-21T17:30:14.714Z,99619.33
2018-03-21T17:32:45.970Z,99613.92
2018-03-21T17:35:17.774Z,99607.69
2018-03-21T17:37:49.405Z,99615.66
2018-03-21T17:40:20.586Z,99615.06
2018-03-21T17:42:51.499Z,99620.60
2018-03-21T17:45:22.393Z,99620.46
2018-03-21T17:47:54.119Z,99619.11
2018-03-21T17:50:25.133Z,99621.19
2018-03-21T17:52:57.453Z,99620.11
2018-03-21T17:55:28.797Z,99626.03
2018-03-21T17:57:59.637Z,99616.52
2018-03-21T18:00:37.109Z,99613.03
2018-03-21T18:03:08.342Z,99614.50
2018-03-21T18:05:39.230Z,99612.52
2018-03-21T18:08:10.057Z,99609.20
2018-03-21T18:10:41.245Z,99611.56
2018-03-21T18:13:12.281Z,99607.30
2018-03-21T18:15:43.248Z,99614.16
2018-03-21T18:18:14.109Z,99611.66
2018-03-21T18:20:45.386Z,99611.45
2018-03-21T18:23:16.957Z,99612.74
2018-03-21T18:25:48.617Z,99614.58
2018-03-21T18:28:19.888Z,99615.76
2018-03-21T18:30:50.806Z,99615.45
2018-03-21T18:33:23.055Z,99608.94
2018-03-21T18:35:54.461Z,99607.02
2018-03-21T18:38:25.960Z,99609.45
2018-03-21T18:40:57.171Z,99607.59
2018-03-21T18:43:28.686Z,99603.83
2018-03-21T18:45:59.555Z,99605.86
2018-03-21T18:48:31.241Z,99605.17
2018-03-21T18:51:04.045Z,99599.81
2018-03-21T18:53:35.683Z,99599.37
2018-03-21T18:56:08.769Z,99591.16
2018-03-21T18:58:39.858Z,99590.52
2018-03-21T19:01:11.077Z,99593.77
2018-03-21T19:03:42.350Z,99597.25
2018-03-21T19:06:13.598Z,99590.23
2018-03-21T19:08:46.044Z,99594.84
2018-03-21T19:11:19.944Z,99596.70
2018-03-21T19:13:53.373Z,99584.55
2018-03-21T19:16:25.292Z,99592.53
2018-03-21T19:18:59.716Z,99585.25
2018-03-21T19:21:33.218Z,99584.63
2018-03-21T19:24:05.306Z,99588.32
2018-03-21T19:26:39.003Z,99588.02
2018-03-21T19:29:10.157Z,99589.03
2018-03-21T19:31:41.550Z,99583.86
2018-03-21T19:34:12.569Z,99584.66
2018-03-21T19:36:43.481Z,99583.98
2018-03-21T19:39:14.314Z,99574.68
2018-03-21T19:41:51.284Z,99577.83
2018-03-21T19:44:22.178Z,99576.31
2018-03-21T19:46:56.178Z,99581.72
2018-03-21T19:49:27.974Z,99579.70
2018-03-21T19:52:03.442Z,99577.50
2018-03-21T19:54:34.566Z,99580.78
2018-03-21T19:57:05.510Z,99583.09
2018-03-21T19:59:36.378Z,99582.11
2018-03-21T20:02:11.751Z,99581.30
2018-03-21T20:04:43.226Z,99570.95
2018-03-21T20:07:14.588Z,99567.73
2018-03-21T20:09:45.533Z,99568.84
2018-03-21T20:12:16.610Z,99571.98
2018-03-21T20:14:48.522Z,99568.95
2018-03-21T20:17:19.433Z,99566.62
2018-03-21T20:19:50.931Z,99560.19
2018-03-21T20:22:22.812Z,99553.80
2018-03-21T20:24:55.501Z,99552.20
2018-03-21T20:27:27.222Z,99548.67
2018-03-21T20:29:58.085Z,99548.48
2018-03-21T20:32:31.074Z,99547.80
2018-03-21T20:35:01.957Z,99538.03
2018-03-21T20:37:32.929Z,99541.55
2018-03-21T20:40:05.115Z,99537.02
2018-03-21T20:42:37.413Z,99536.74
2018-03-21T20:45:08.390Z,99535.55
2018-03-21T20:47:39.797Z,99526.95
2018-03-21T20:50:15.178Z,99522.46
2018-03-21T20:52:46.066Z,99523.21
2018-03-21T20:55:17.309Z,99520.27
2018-03-21T20:57:48.179Z,99516.27
2018-03-21T21:00:19.083Z,99514.03
2018-03-21T21:02:50.879Z,99508.34
2018-03-21T21:05:22.669Z,99509.72
2018-03-21T21:07:53.550Z,99511.91
2018-03-21T21:10:24.441Z,99515.42
2018-03-21T21:12:56.051Z,99513.72
2018-03-21T21:15:27.010Z,99510.94
2018-03-21T21:17:57.914Z,99511.33
2018-03-21T21:20:28.955Z,99509.36
2018-03-21T21:22:59.869Z,99500.54
2018-03-21T21:25:30.773Z,99499.88
2018-03-21T21:28:04.257Z,99493.11
2018-03-21T21:30:37.942Z,99491.80
2018-03-21T21:33:10.097Z,99490.77
2018-03-21T21:35:41.017Z,99485.51
2018-03-21T21:38:11.925Z,99489.11
2018-03-21T21:40:43.271Z,99489.27
2018-03-21T21:43:14.089Z,99488.48
2018-03-21T21:45:47.049Z,99485.73
2018-03-21T21:48:17.914Z,99474.44
2018-03-21T21:50:48.870Z,99474.06
2018-03-21T21:53:19.964Z,99478.39
2018-03-21T21:55:50.873Z,99474.83
2018-03-21T21:58:21.678Z,99470.33
2018-03-21T22:00:52.746Z,99468.26
2018-03-21T22:03:23.581Z,99467.47
2018-03-21T22:05:54.777Z,99464.33
2018-03-21T22:08:26.029Z,99468.30
2018-03-21T22:10:56.921Z,99468.23
2018-03-21T22:13:27.954Z,99468.02
2018-03-21T22:15:59.260Z,99465.42
2018-03-21T22:18:30.026Z,99467.06
2018-03-21T22:21:01.132Z,99462.77
2018-03-21T22:23:35.413Z,99463.02
2018-03-21T22:26:06.721Z,99461.30
2018-03-21T22:28:37.885Z,99461.63
2018-03-21T22:31:08.685Z,99455.64
2018-03-21T22:33:39.751Z,99460.44
2018-03-21T22:36:11.517Z,99454.76
2018-03-21T22:38:42.305Z,99453.59
2018-03-21T22:41:14.032Z,99452.25
2018-03-21T22:43:45.297Z,99451.63
2018-03-21T22:46:16.187Z,99442.85
2018-03-21T22:48:47.309Z,99442.03
2018-03-21T22:51:18.128Z,99437.19
2018-03-21T22:53:49.642Z,99434.20
2018-03-21T22:56:21.401Z,99432.92
2018-03-21T22:58:52.200Z,99428.67
2018-03-21T23:01:23.288Z,99422.13
2018-03-21T23:03:54.201Z,99420.29
2018-03-21T23:06:25.062Z,99413.70
2018-03-21T23:08:56.358Z,99409.45
2018-03-21T23:11:27.249Z,99403.75
2018-03-21T23:13:57.946Z,99409.84
2018-03-21T23:16:30.358Z,99397.17
2018-03-21T23:19:01.082Z,99396.45
2018-03-21T23:21:31.745Z,99386.78
2018-03-21T23:24:03.336Z,99385.58
2018-03-21T23:26:34.094Z,99381.16
2018-03-21T23:29:05.918Z,99376.03
2018-03-21T23:31:36.663Z,99378.41
2018-03-21T23:34:07.650Z,99376.61
2018-03-21T23:36:38.438Z,99370.20
2018-03-21T23:39:09.106Z,99369.14
2018-03-21T23:41:40.373Z,99370.29
2018-03-21T23:44:11.960Z,99365.88
2018-03-21T23:46:42.811Z,99367.50
2018-03-21T23:49:13.982Z,99362.14
2018-03-21T23:51:45.555Z,99354.72
2018-03-21T23:54:16.775Z,99352.58
2018-03-21T23:56:47.949Z,99346.16
2018-03-21T23:59:19.478Z,99342.70
